Terminal Aerodrome Forecast
Issued by NWS

Home | Current Version | Previous Version | Text Only | Print | Product List | Glossary On
Versions: 1 2 3 4 5 6 7 8 9 10 11 12 13 14 15 16
000
FTUS43 KAPX 031649 AAB
TAFAPN
TAF AMD
KAPN 031649Z 0317/0412 31007KT P6SM SCT020 OVC040
      TEMPO 0317/0321 OVC022
     FM040000 00000KT P6SM OVC045=

USA.gov is the U.S. government's official web portal to all federal, state and local government web resources and services.